createdAt,value
2023-04-24T00:00:15.988Z,11.80
2023-04-24T00:05:19.268Z,11.80
2023-04-24T00:10:22.773Z,11.90
2023-04-24T00:15:25.773Z,11.90
2023-04-24T00:20:33.692Z,12.00
2023-04-24T00:25:36.504Z,12.10
2023-04-24T00:30:39.522Z,12.20
2023-04-24T00:35:42.583Z,12.40
2023-04-24T00:40:46.056Z,12.50
2023-04-24T00:45:49.106Z,12.50
2023-04-24T00:50:52.182Z,12.60
2023-04-24T00:55:55.304Z,12.60
2023-04-24T01:00:59.732Z,12.60
2023-04-24T01:06:03.003Z,12.60
2023-04-24T01:11:06.588Z,12.70
2023-04-24T01:16:09.409Z,12.70
2023-04-24T01:21:19.656Z,12.70
2023-04-24T01:26:24.788Z,12.70
2023-04-24T01:31:27.772Z,12.60
2023-04-24T01:36:33.320Z,12.60
2023-04-24T01:41:36.329Z,12.60
2023-04-24T01:46:39.570Z,12.50
2023-04-24T01:51:42.717Z,12.60
2023-04-24T01:56:47.732Z,12.60
2023-04-24T02:01:50.699Z,12.60
2023-04-24T02:06:53.876Z,12.70
2023-04-24T02:11:57.488Z,12.70
2023-04-24T02:17:00.257Z,12.70
2023-04-24T02:22:03.184Z,12.70
2023-04-24T02:27:06.384Z,12.60
2023-04-24T02:32:13.340Z,12.50
2023-04-24T02:37:16.585Z,12.50
2023-04-24T02:42:19.703Z,12.40
2023-04-24T02:47:22.452Z,12.40
2023-04-24T02:52:25.544Z,12.40
2023-04-24T02:57:28.501Z,12.40
2023-04-24T03:02:31.562Z,12.50
2023-04-24T03:07:34.983Z,12.50
2023-04-24T03:12:37.879Z,12.50
2023-04-24T03:17:40.891Z,12.50
2023-04-24T03:22:43.735Z,12.60
2023-04-24T03:27:47.236Z,12.60
2023-04-24T03:32:50.301Z,12.60
2023-04-24T03:37:53.226Z,12.60
2023-04-24T03:42:56.293Z,12.60
2023-04-24T03:47:59.435Z,12.60
2023-04-24T03:53:02.446Z,12.60
2023-04-24T03:58:06.982Z,12.60
2023-04-24T04:03:10.167Z,12.60
2023-04-24T04:08:13.323Z,12.70
2023-04-24T04:13:16.390Z,12.70
2023-04-24T04:18:19.397Z,12.70
2023-04-24T04:23:22.348Z,12.70
2023-04-24T04:28:28.178Z,12.70
2023-04-24T04:33:32.029Z,12.80
2023-04-24T04:38:36.073Z,12.90
2023-04-24T04:43:40.749Z,12.90
2023-04-24T04:48:44.149Z,12.90
2023-04-24T04:53:47.152Z,12.90
2023-04-24T04:58:50.560Z,13.00
2023-04-24T05:03:53.618Z,13.00
2023-04-24T05:08:58.327Z,13.10
2023-04-24T05:14:01.434Z,13.10
2023-04-24T05:19:04.377Z,13.20
2023-04-24T05:24:08.005Z,13.30
2023-04-24T05:29:10.901Z,13.40
2023-04-24T05:34:13.866Z,13.50
2023-04-24T05:39:16.807Z,13.60
2023-04-24T05:44:19.897Z,13.70
2023-04-24T05:49:23.447Z,13.80
2023-04-24T05:54:26.444Z,14.00
2023-04-24T05:59:29.900Z,14.10
2023-04-24T06:04:34.188Z,14.10
2023-04-24T06:09:37.763Z,14.10
2023-04-24T06:14:40.889Z,14.10
2023-04-24T06:19:43.789Z,14.00
2023-04-24T06:24:48.340Z,14.10
2023-04-24T06:29:55.308Z,14.20
2023-04-24T06:34:59.507Z,14.30
2023-04-24T06:40:02.714Z,14.40
2023-04-24T06:45:06.328Z,14.60
2023-04-24T06:50:10.134Z,14.70
2023-04-24T06:55:13.132Z,14.70
2023-04-24T07:00:16.574Z,14.80
2023-04-24T07:05:21.013Z,14.80
2023-04-24T07:10:24.253Z,14.90
2023-04-24T07:15:27.619Z,15.00
2023-04-24T07:20:30.692Z,15.20
2023-04-24T07:25:34.065Z,15.20
2023-04-24T07:30:37.114Z,15.30
2023-04-24T07:35:40.070Z,15.50
2023-04-24T07:40:43.231Z,15.60
2023-04-24T07:45:46.411Z,15.80
2023-04-24T07:50:49.604Z,16.00
2023-04-24T07:55:52.635Z,16.30
2023-04-24T08:00:56.120Z,16.50
2023-04-24T08:05:59.331Z,16.70
2023-04-24T08:11:02.336Z,16.70
2023-04-24T08:16:05.685Z,16.90
2023-04-24T08:21:08.841Z,17.10
2023-04-24T08:26:12.323Z,17.30
2023-04-24T08:31:15.621Z,17.20
2023-04-24T08:36:18.637Z,17.30
2023-04-24T08:41:22.413Z,17.60
2023-04-24T08:46:26.396Z,17.70
2023-04-24T08:51:31.559Z,17.70
2023-04-24T08:56:38.941Z,18.10
2023-04-24T09:01:43.077Z,18.60
2023-04-24T09:06:46.076Z,18.90
2023-04-24T09:11:51.797Z,19.10
2023-04-24T09:16:55.031Z,19.40
2023-04-24T09:21:58.079Z,19.30
2023-04-24T09:27:02.517Z,19.20
2023-04-24T09:32:26.912Z,19.10
2023-04-24T09:37:31.158Z,19.00
2023-04-24T09:42:34.287Z,19.10
2023-04-24T09:47:41.327Z,19.50
2023-04-24T09:53:06.575Z,20.00
2023-04-24T09:58:10.356Z,20.30
2023-04-24T10:03:14.038Z,20.60
2023-04-24T10:08:17.144Z,20.50
2023-04-24T10:13:20.663Z,20.30
2023-04-24T10:18:25.275Z,20.30
2023-04-24T10:23:29.539Z,20.20
2023-04-24T10:28:35.160Z,20.10
2023-04-24T10:33:39.437Z,20.20
2023-04-24T10:38:47.261Z,20.50
2023-04-24T10:44:10.849Z,20.90
2023-04-24T10:49:17.035Z,21.10
2023-04-24T10:54:48.475Z,21.20
2023-04-24T11:00:13.540Z,20.90
2023-04-24T11:05:18.688Z,20.60
2023-04-24T11:10:28.440Z,20.30
2023-04-24T11:15:31.572Z,20.10
2023-04-24T11:20:34.657Z,19.80
2023-04-24T11:25:37.655Z,19.60
2023-04-24T11:30:41.426Z,19.50
2023-04-24T11:35:44.538Z,19.50
2023-04-24T11:40:50.182Z,19.40
2023-04-24T11:45:53.292Z,19.40
2023-04-24T11:50:56.761Z,19.30
2023-04-24T11:56:05.476Z,19.30
2023-04-24T12:01:08.478Z,19.20
2023-04-24T12:06:13.190Z,19.20
2023-04-24T12:11:19.005Z,19.10
2023-04-24T12:16:22.287Z,19.00
2023-04-24T12:21:27.666Z,18.90
2023-04-24T12:26:30.990Z,18.70
2023-04-24T12:31:34.251Z,18.40
2023-04-24T12:36:37.325Z,18.20
2023-04-24T12:42:00.407Z,18.10
2023-04-24T12:47:03.653Z,18.10
2023-04-24T12:52:06.651Z,18.10
2023-04-24T12:57:09.658Z,18.10
2023-04-24T13:02:13.059Z,18.30
2023-04-24T13:07:16.496Z,18.60
2023-04-24T13:12:19.558Z,18.90
2023-04-24T13:17:23.489Z,19.20
2023-04-24T13:22:26.536Z,19.40
2023-04-24T13:27:29.511Z,19.40
2023-04-24T13:32:34.425Z,19.30
2023-04-24T13:37:37.555Z,19.10
2023-04-24T13:42:41.170Z,19.00
2023-04-24T13:47:44.144Z,19.00
2023-04-24T13:52:47.242Z,19.10
2023-04-24T13:57:50.561Z,19.10
2023-04-24T14:02:53.686Z,18.90
2023-04-24T14:07:57.291Z,18.60
2023-04-24T14:13:00.385Z,18.30
2023-04-24T14:18:05.742Z,18.10
2023-04-24T14:23:09.528Z,17.90
2023-04-24T14:28:12.555Z,17.70
2023-04-24T14:33:16.193Z,17.60
2023-04-24T14:38:19.133Z,17.40
2023-04-24T14:43:22.173Z,17.20
2023-04-24T14:48:25.773Z,17.00
2023-04-24T14:53:28.841Z,16.80
2023-04-24T14:58:31.889Z,16.70
2023-04-24T15:03:35.134Z,16.70
2023-04-24T15:08:38.275Z,16.50
2023-04-24T15:13:41.274Z,16.50
2023-04-24T15:18:44.365Z,16.40
2023-04-24T15:23:47.616Z,16.40
2023-04-24T15:28:51.478Z,16.30
2023-04-24T15:33:54.465Z,16.20
2023-04-24T15:38:57.798Z,16.10
2023-04-24T15:44:01.110Z,16.00
2023-04-24T15:49:04.266Z,16.10
2023-04-24T15:54:08.403Z,16.10
2023-04-24T15:59:11.488Z,16.10
2023-04-24T16:04:14.796Z,16.00
2023-04-24T16:09:18.422Z,15.90
2023-04-24T16:14:21.419Z,15.80
2023-04-24T16:19:24.682Z,15.70
2023-04-24T16:24:29.605Z,15.60
2023-04-24T16:29:32.793Z,15.50
2023-04-24T16:34:35.779Z,15.40
2023-04-24T16:39:39.004Z,15.40
2023-04-24T16:44:43.139Z,15.30
2023-04-24T16:49:46.265Z,15.20
2023-04-24T16:54:49.285Z,15.20
2023-04-24T16:59:52.299Z,15.10
2023-04-24T17:04:55.570Z,15.10
2023-04-24T17:09:58.618Z,15.00
2023-04-24T17:15:01.688Z,14.90
2023-04-24T17:20:18.586Z,15.00
2023-04-24T17:25:25.128Z,14.90
2023-04-24T17:30:28.105Z,14.90
2023-04-24T17:35:31.144Z,14.80
2023-04-24T17:40:34.490Z,14.60
2023-04-24T17:45:37.757Z,14.60
2023-04-24T17:50:41.076Z,14.50
2023-04-24T17:55:44.531Z,14.40
2023-04-24T18:00:47.499Z,14.30
2023-04-24T18:05:50.864Z,14.20
2023-04-24T18:10:54.764Z,14.10
2023-04-24T18:15:57.784Z,14.00
2023-04-24T18:21:01.042Z,14.00
2023-04-24T18:26:04.247Z,13.90
2023-04-24T18:31:08.667Z,13.80
2023-04-24T18:36:11.552Z,13.70
2023-04-24T18:41:14.816Z,13.80
2023-04-24T18:46:18.317Z,13.70
2023-04-24T18:51:21.197Z,13.70
2023-04-24T18:56:24.167Z,13.70
2023-04-24T19:01:27.471Z,13.70
2023-04-24T19:06:31.932Z,13.60
2023-04-24T19:11:35.031Z,13.60
2023-04-24T19:16:38.071Z,13.50
2023-04-24T19:21:41.300Z,13.50
2023-04-24T19:26:45.371Z,13.50
2023-04-24T19:31:48.399Z,13.50
2023-04-24T19:36:51.520Z,13.40
2023-04-24T19:41:57.142Z,13.40
2023-04-24T19:47:00.424Z,13.50
2023-04-24T19:52:03.390Z,13.50
2023-04-24T19:57:06.741Z,13.40
2023-04-24T20:02:11.601Z,13.50
2023-04-24T20:07:14.695Z,13.50
2023-04-24T20:12:19.544Z,13.50
2023-04-24T20:17:22.530Z,13.50
2023-04-24T20:22:25.585Z,13.40
2023-04-24T20:27:30.283Z,13.40
2023-04-24T20:32:33.395Z,13.40
2023-04-24T20:37:36.937Z,13.40
2023-04-24T20:42:40.246Z,13.40
2023-04-24T20:47:43.132Z,13.50
2023-04-24T20:52:46.652Z,13.50
2023-04-24T20:57:49.678Z,13.50
2023-04-24T21:02:52.792Z,13.50
2023-04-24T21:07:56.289Z,13.50
2023-04-24T21:12:59.354Z,13.50
2023-04-24T21:18:03.390Z,13.40
2023-04-24T21:23:06.386Z,13.40
2023-04-24T21:28:09.282Z,13.40
2023-04-24T21:33:12.690Z,13.40
2023-04-24T21:38:15.768Z,13.40
2023-04-24T21:43:20.600Z,13.40
2023-04-24T21:48:26.437Z,13.40
2023-04-24T21:53:29.829Z,13.30
2023-04-24T21:58:32.836Z,13.30
2023-04-24T22:03:36.012Z,13.20
2023-04-24T22:08:39.174Z,13.20
2023-04-24T22:13:42.865Z,13.20
2023-04-24T22:18:47.702Z,13.10
2023-04-24T22:23:51.711Z,13.10
2023-04-24T22:28:54.939Z,13.10
2023-04-24T22:33:57.957Z,13.00
2023-04-24T22:39:00.874Z,13.00
2023-04-24T22:44:04.139Z,13.00
2023-04-24T22:49:07.390Z,12.90
2023-04-24T22:54:10.997Z,12.90
2023-04-24T22:59:13.968Z,12.80
2023-04-24T23:04:16.981Z,12.80
2023-04-24T23:09:20.095Z,12.70
2023-04-24T23:14:24.662Z,12.70
2023-04-24T23:19:27.830Z,12.70
2023-04-24T23:24:30.897Z,12.70
2023-04-24T23:29:33.997Z,12.80
2023-04-24T23:34:39.406Z,12.80
2023-04-24T23:39:42.258Z,12.80
2023-04-24T23:44:45.408Z,12.90
2023-04-24T23:49:48.334Z,12.90
2023-04-24T23:54:51.320Z,12.90
2023-04-24T23:59:54.419Z,12.90
